sensor_id;sensor_type;location;lat;lon;timestamp;P1;durP1;ratioP1;P2;durP2;ratioP2
16063;SDS011;8136;53.172;8.256;2023-02-01T00:00:40;18.07;;;3.63;;
16063;SDS011;8136;53.172;8.256;2023-02-01T00:03:07;13.17;;;3.77;;
16063;SDS011;8136;53.172;8.256;2023-02-01T00:05:33;18.57;;;3.50;;
16063;SDS011;8136;53.172;8.256;2023-02-01T00:08:01;21.73;;;4.03;;
16063;SDS011;8136;53.172;8.256;2023-02-01T00:10:28;18.23;;;3.93;;
16063;SDS011;8136;53.172;8.256;2023-02-01T00:13:03;19.60;;;3.10;;
16063;SDS011;8136;53.172;8.256;2023-02-01T00:15:32;18.70;;;4.23;;
16063;SDS011;8136;53.172;8.256;2023-02-01T00:18:01;20.83;;;4.20;;
16063;SDS011;8136;53.172;8.256;2023-02-01T00:20:28;16.03;;;3.43;;
16063;SDS011;8136;53.172;8.256;2023-02-01T00:22:55;10.87;;;3.70;;
16063;SDS011;8136;53.172;8.256;2023-02-01T00:25:23;18.00;;;3.83;;
16063;SDS011;8136;53.172;8.256;2023-02-01T00:27:50;14.73;;;3.37;;
16063;SDS011;8136;53.172;8.256;2023-02-01T00:30:17;16.20;;;3.50;;
16063;SDS011;8136;53.172;8.256;2023-02-01T00:32:44;15.83;;;3.77;;
16063;SDS011;8136;53.172;8.256;2023-02-01T00:35:11;19.60;;;4.00;;
16063;SDS011;8136;53.172;8.256;2023-02-01T00:37:37;15.10;;;3.20;;
16063;SDS011;8136;53.172;8.256;2023-02-01T00:40:05;17.03;;;3.57;;
16063;SDS011;8136;53.172;8.256;2023-02-01T00:42:34;14.97;;;2.87;;
16063;SDS011;8136;53.172;8.256;2023-02-01T00:45:00;12.17;;;3.33;;
16063;SDS011;8136;53.172;8.256;2023-02-01T00:47:27;18.17;;;3.37;;
16063;SDS011;8136;53.172;8.256;2023-02-01T00:49:55;15.73;;;3.73;;
16063;SDS011;8136;53.172;8.256;2023-02-01T00:52:22;17.33;;;3.53;;
16063;SDS011;8136;53.172;8.256;2023-02-01T00:54:49;15.03;;;3.40;;
16063;SDS011;8136;53.172;8.256;2023-02-01T00:57:25;20.57;;;3.40;;
16063;SDS011;8136;53.172;8.256;2023-02-01T00:59:53;16.10;;;3.40;;
16063;SDS011;8136;53.172;8.256;2023-02-01T01:02:20;14.93;;;3.67;;
16063;SDS011;8136;53.172;8.256;2023-02-01T01:04:47;17.50;;;3.67;;
16063;SDS011;8136;53.172;8.256;2023-02-01T01:07:13;19.67;;;4.07;;
16063;SDS011;8136;53.172;8.256;2023-02-01T01:09:40;15.17;;;3.13;;
16063;SDS011;8136;53.172;8.256;2023-02-01T01:12:07;13.87;;;3.47;;
16063;SDS011;8136;53.172;8.256;2023-02-01T01:14:34;15.90;;;3.60;;
16063;SDS011;8136;53.172;8.256;2023-02-01T01:17:02;18.43;;;3.70;;
16063;SDS011;8136;53.172;8.256;2023-02-01T01:19:29;18.30;;;3.87;;
16063;SDS011;8136;53.172;8.256;2023-02-01T01:21:56;19.63;;;3.47;;
16063;SDS011;8136;53.172;8.256;2023-02-01T01:24:23;14.33;;;3.30;;
16063;SDS011;8136;53.172;8.256;2023-02-01T01:26:49;18.60;;;3.67;;
16063;SDS011;8136;53.172;8.256;2023-02-01T01:29:16;15.13;;;3.40;;
16063;SDS011;8136;53.172;8.256;2023-02-01T01:31:43;18.70;;;3.50;;
16063;SDS011;8136;53.172;8.256;2023-02-01T01:34:11;19.07;;;3.13;;
16063;SDS011;8136;53.172;8.256;2023-02-01T01:36:38;9.30;;;2.73;;
16063;SDS011;8136;53.172;8.256;2023-02-01T01:39:05;18.23;;;4.50;;
16063;SDS011;8136;53.172;8.256;2023-02-01T01:41:32;17.70;;;3.73;;
16063;SDS011;8136;53.172;8.256;2023-02-01T01:44:00;17.57;;;3.37;;
16063;SDS011;8136;53.172;8.256;2023-02-01T01:46:28;15.17;;;3.43;;
16063;SDS011;8136;53.172;8.256;2023-02-01T01:48:59;14.80;;;3.20;;
16063;SDS011;8136;53.172;8.256;2023-02-01T01:51:32;14.53;;;4.23;;
16063;SDS011;8136;53.172;8.256;2023-02-01T01:54:04;14.70;;;2.77;;
16063;SDS011;8136;53.172;8.256;2023-02-01T01:56:36;18.97;;;3.73;;
16063;SDS011;8136;53.172;8.256;2023-02-01T01:59:04;17.13;;;2.97;;
16063;SDS011;8136;53.172;8.256;2023-02-01T02:01:31;9.67;;;3.00;;
16063;SDS011;8136;53.172;8.256;2023-02-01T02:03:58;16.40;;;3.30;;
16063;SDS011;8136;53.172;8.256;2023-02-01T02:06:28;19.07;;;3.80;;
16063;SDS011;8136;53.172;8.256;2023-02-01T02:09:03;11.20;;;3.50;;
16063;SDS011;8136;53.172;8.256;2023-02-01T02:11:30;12.40;;;3.40;;
16063;SDS011;8136;53.172;8.256;2023-02-01T02:13:56;15.27;;;2.70;;
16063;SDS011;8136;53.172;8.256;2023-02-01T02:22:40;13.27;;;3.23;;
16063;SDS011;8136;53.172;8.256;2023-02-01T02:25:37;11.47;;;3.27;;
16063;SDS011;8136;53.172;8.256;2023-02-01T02:28:53;14.57;;;3.07;;
16063;SDS011;8136;53.172;8.256;2023-02-01T02:34:50;15.03;;;2.47;;
16063;SDS011;8136;53.172;8.256;2023-02-01T02:37:22;13.17;;;2.97;;
16063;SDS011;8136;53.172;8.256;2023-02-01T02:39:56;15.57;;;3.17;;
16063;SDS011;8136;53.172;8.256;2023-02-01T02:42:33;16.70;;;3.13;;
16063;SDS011;8136;53.172;8.256;2023-02-01T02:45:23;16.37;;;3.23;;
16063;SDS011;8136;53.172;8.256;2023-02-01T02:48:19;15.37;;;3.87;;
16063;SDS011;8136;53.172;8.256;2023-02-01T02:50:52;14.70;;;3.50;;
16063;SDS011;8136;53.172;8.256;2023-02-01T02:53:56;12.57;;;2.63;;
16063;SDS011;8136;53.172;8.256;2023-02-01T02:56:44;13.00;;;2.83;;
16063;SDS011;8136;53.172;8.256;2023-02-01T02:59:29;19.27;;;3.30;;
16063;SDS011;8136;53.172;8.256;2023-02-01T03:02:16;12.70;;;3.57;;
16063;SDS011;8136;53.172;8.256;2023-02-01T03:05:01;15.83;;;2.63;;
16063;SDS011;8136;53.172;8.256;2023-02-01T03:10:23;15.27;;;3.87;;
16063;SDS011;8136;53.172;8.256;2023-02-01T03:12:59;12.27;;;3.63;;
16063;SDS011;8136;53.172;8.256;2023-02-01T03:15:29;14.57;;;3.10;;
16063;SDS011;8136;53.172;8.256;2023-02-01T03:18:01;11.50;;;2.80;;
16063;SDS011;8136;53.172;8.256;2023-02-01T03:20:30;13.60;;;3.20;;
16063;SDS011;8136;53.172;8.256;2023-02-01T03:22:59;16.80;;;3.47;;
16063;SDS011;8136;53.172;8.256;2023-02-01T03:25:28;13.20;;;3.40;;
16063;SDS011;8136;53.172;8.256;2023-02-01T03:27:59;11.93;;;3.03;;
16063;SDS011;8136;53.172;8.256;2023-02-01T03:30:30;8.00;;;2.47;;
16063;SDS011;8136;53.172;8.256;2023-02-01T03:33:01;17.07;;;3.43;;
16063;SDS011;8136;53.172;8.256;2023-02-01T03:35:48;18.10;;;2.80;;
16063;SDS011;8136;53.172;8.256;2023-02-01T03:38:38;16.93;;;2.70;;
16063;SDS011;8136;53.172;8.256;2023-02-01T03:41:13;14.37;;;2.87;;
16063;SDS011;8136;53.172;8.256;2023-02-01T03:43:47;9.20;;;2.80;;
16063;SDS011;8136;53.172;8.256;2023-02-01T03:46:21;12.63;;;2.57;;
16063;SDS011;8136;53.172;8.256;2023-02-01T03:48:57;13.47;;;3.37;;
16063;SDS011;8136;53.172;8.256;2023-02-01T03:51:28;20.37;;;3.43;;
16063;SDS011;8136;53.172;8.256;2023-02-01T03:54:03;14.53;;;3.60;;
16063;SDS011;8136;53.172;8.256;2023-02-01T03:56:38;17.43;;;3.90;;
16063;SDS011;8136;53.172;8.256;2023-02-01T03:59:22;19.37;;;3.20;;
16063;SDS011;8136;53.172;8.256;2023-02-01T04:01:56;20.57;;;3.47;;
16063;SDS011;8136;53.172;8.256;2023-02-01T04:04:33;17.03;;;3.60;;
16063;SDS011;8136;53.172;8.256;2023-02-01T04:07:10;11.13;;;3.23;;
16063;SDS011;8136;53.172;8.256;2023-02-01T04:09:53;13.53;;;3.27;;
16063;SDS011;8136;53.172;8.256;2023-02-01T04:12:23;10.20;;;3.10;;
16063;SDS011;8136;53.172;8.256;2023-02-01T04:14:50;13.90;;;3.90;;
16063;SDS011;8136;53.172;8.256;2023-02-01T04:17:18;15.83;;;4.53;;
16063;SDS011;8136;53.172;8.256;2023-02-01T04:19:48;17.60;;;4.23;;
16063;SDS011;8136;53.172;8.256;2023-02-01T04:22:15;19.97;;;3.80;;
16063;SDS011;8136;53.172;8.256;2023-02-01T04:24:42;19.03;;;4.10;;
16063;SDS011;8136;53.172;8.256;2023-02-01T04:27:18;16.70;;;3.53;;
16063;SDS011;8136;53.172;8.256;2023-02-01T04:29:59;15.80;;;3.53;;
16063;SDS011;8136;53.172;8.256;2023-02-01T04:32:35;16.63;;;4.23;;
16063;SDS011;8136;53.172;8.256;2023-02-01T04:35:04;21.77;;;3.80;;
16063;SDS011;8136;53.172;8.256;2023-02-01T04:37:32;14.17;;;3.60;;
16063;SDS011;8136;53.172;8.256;2023-02-01T04:40:03;15.27;;;3.97;;
16063;SDS011;8136;53.172;8.256;2023-02-01T04:42:37;17.07;;;3.53;;
16063;SDS011;8136;53.172;8.256;2023-02-01T04:45:04;16.77;;;3.83;;
16063;SDS011;8136;53.172;8.256;2023-02-01T04:47:32;18.30;;;3.77;;
16063;SDS011;8136;53.172;8.256;2023-02-01T04:50:08;16.43;;;3.57;;
16063;SDS011;8136;53.172;8.256;2023-02-01T04:52:36;13.17;;;3.73;;
16063;SDS011;8136;53.172;8.256;2023-02-01T04:55:07;17.77;;;3.67;;
16063;SDS011;8136;53.172;8.256;2023-02-01T04:57:39;14.23;;;3.10;;
16063;SDS011;8136;53.172;8.256;2023-02-01T05:00:09;13.53;;;2.80;;
16063;SDS011;8136;53.172;8.256;2023-02-01T05:02:40;8.00;;;2.80;;
16063;SDS011;8136;53.172;8.256;2023-02-01T05:05:08;12.33;;;2.77;;
16063;SDS011;8136;53.172;8.256;2023-02-01T05:07:37;13.17;;;3.07;;
16063;SDS011;8136;53.172;8.256;2023-02-01T05:10:08;12.70;;;3.00;;
16063;SDS011;8136;53.172;8.256;2023-02-01T05:12:35;12.83;;;2.90;;
16063;SDS011;8136;53.172;8.256;2023-02-01T05:15:24;12.33;;;3.03;;
16063;SDS011;8136;53.172;8.256;2023-02-01T05:17:51;8.23;;;2.50;;
16063;SDS011;8136;53.172;8.256;2023-02-01T05:20:18;9.77;;;2.37;;
16063;SDS011;8136;53.172;8.256;2023-02-01T05:22:51;11.87;;;2.67;;
16063;SDS011;8136;53.172;8.256;2023-02-01T05:25:18;14.77;;;3.00;;
16063;SDS011;8136;53.172;8.256;2023-02-01T05:27:47;9.67;;;2.67;;
16063;SDS011;8136;53.172;8.256;2023-02-01T05:30:17;10.80;;;2.47;;
16063;SDS011;8136;53.172;8.256;2023-02-01T05:32:46;13.87;;;3.00;;
16063;SDS011;8136;53.172;8.256;2023-02-01T05:35:20;14.87;;;2.77;;
16063;SDS011;8136;53.172;8.256;2023-02-01T05:37:49;15.03;;;3.40;;
16063;SDS011;8136;53.172;8.256;2023-02-01T05:40:34;13.30;;;3.87;;
16063;SDS011;8136;53.172;8.256;2023-02-01T05:43:04;11.97;;;3.80;;
16063;SDS011;8136;53.172;8.256;2023-02-01T05:45:31;18.70;;;3.30;;
16063;SDS011;8136;53.172;8.256;2023-02-01T05:47:59;18.83;;;3.10;;
16063;SDS011;8136;53.172;8.256;2023-02-01T05:50:29;14.47;;;3.53;;
16063;SDS011;8136;53.172;8.256;2023-02-01T05:53:07;16.80;;;3.70;;
16063;SDS011;8136;53.172;8.256;2023-02-01T05:55:34;12.70;;;3.40;;
16063;SDS011;8136;53.172;8.256;2023-02-01T05:58:04;14.03;;;3.27;;
16063;SDS011;8136;53.172;8.256;2023-02-01T06:00:38;18.73;;;3.83;;
16063;SDS011;8136;53.172;8.256;2023-02-01T06:03:09;20.93;;;3.53;;
16063;SDS011;8136;53.172;8.256;2023-02-01T06:05:50;20.00;;;3.60;;
16063;SDS011;8136;53.172;8.256;2023-02-01T06:08:20;15.23;;;3.70;;
16063;SDS011;8136;53.172;8.256;2023-02-01T06:10:49;19.97;;;3.20;;
16063;SDS011;8136;53.172;8.256;2023-02-01T06:13:16;13.07;;;2.67;;
16063;SDS011;8136;53.172;8.256;2023-02-01T06:15:47;18.33;;;3.60;;
16063;SDS011;8136;53.172;8.256;2023-02-01T06:18:19;15.20;;;3.53;;
16063;SDS011;8136;53.172;8.256;2023-02-01T06:20:54;14.47;;;4.03;;
16063;SDS011;8136;53.172;8.256;2023-02-01T06:23:25;10.90;;;2.73;;
16063;SDS011;8136;53.172;8.256;2023-02-01T06:26:00;15.13;;;3.07;;
16063;SDS011;8136;53.172;8.256;2023-02-01T06:28:38;7.47;;;2.40;;
16063;SDS011;8136;53.172;8.256;2023-02-01T06:31:07;13.13;;;3.00;;
16063;SDS011;8136;53.172;8.256;2023-02-01T06:33:50;15.37;;;3.33;;
16063;SDS011;8136;53.172;8.256;2023-02-01T06:36:22;11.47;;;2.57;;
16063;SDS011;8136;53.172;8.256;2023-02-01T06:38:52;12.17;;;2.77;;
16063;SDS011;8136;53.172;8.256;2023-02-01T06:41:24;12.30;;;3.20;;
16063;SDS011;8136;53.172;8.256;2023-02-01T06:44:03;13.53;;;4.13;;
16063;SDS011;8136;53.172;8.256;2023-02-01T06:46:33;17.60;;;4.20;;
16063;SDS011;8136;53.172;8.256;2023-02-01T06:49:06;16.67;;;3.37;;
16063;SDS011;8136;53.172;8.256;2023-02-01T06:51:48;17.03;;;3.83;;
16063;SDS011;8136;53.172;8.256;2023-02-01T06:54:18;16.17;;;4.30;;
16063;SDS011;8136;53.172;8.256;2023-02-01T06:56:48;19.73;;;3.60;;
16063;SDS011;8136;53.172;8.256;2023-02-01T06:59:21;12.30;;;3.50;;
16063;SDS011;8136;53.172;8.256;2023-02-01T07:01:48;15.50;;;3.00;;
16063;SDS011;8136;53.172;8.256;2023-02-01T07:04:19;18.27;;;3.43;;
16063;SDS011;8136;53.172;8.256;2023-02-01T07:07:01;12.17;;;2.77;;
16063;SDS011;8136;53.172;8.256;2023-02-01T07:09:35;11.67;;;3.50;;
16063;SDS011;8136;53.172;8.256;2023-02-01T07:12:07;13.87;;;3.10;;
16063;SDS011;8136;53.172;8.256;2023-02-01T07:14:40;17.80;;;3.80;;
16063;SDS011;8136;53.172;8.256;2023-02-01T07:17:10;18.10;;;3.60;;
16063;SDS011;8136;53.172;8.256;2023-02-01T07:19:45;11.37;;;3.53;;
16063;SDS011;8136;53.172;8.256;2023-02-01T07:22:22;13.10;;;3.77;;
16063;SDS011;8136;53.172;8.256;2023-02-01T07:24:59;15.97;;;3.17;;
16063;SDS011;8136;53.172;8.256;2023-02-01T07:27:26;16.83;;;3.73;;
16063;SDS011;8136;53.172;8.256;2023-02-01T07:29:58;16.57;;;3.10;;
16063;SDS011;8136;53.172;8.256;2023-02-01T07:32:29;13.93;;;3.20;;
16063;SDS011;8136;53.172;8.256;2023-02-01T07:34:59;10.53;;;2.90;;
16063;SDS011;8136;53.172;8.256;2023-02-01T07:37:37;19.23;;;3.37;;
16063;SDS011;8136;53.172;8.256;2023-02-01T07:40:04;14.90;;;3.37;;
16063;SDS011;8136;53.172;8.256;2023-02-01T07:42:40;21.43;;;3.60;;
16063;SDS011;8136;53.172;8.256;2023-02-01T07:45:07;12.27;;;3.30;;
16063;SDS011;8136;53.172;8.256;2023-02-01T07:47:34;13.03;;;3.30;;
16063;SDS011;8136;53.172;8.256;2023-02-01T07:50:02;17.30;;;3.57;;
16063;SDS011;8136;53.172;8.256;2023-02-01T07:52:30;14.67;;;3.30;;
16063;SDS011;8136;53.172;8.256;2023-02-01T07:54:56;20.37;;;3.37;;
16063;SDS011;8136;53.172;8.256;2023-02-01T07:57:23;16.53;;;3.07;;
16063;SDS011;8136;53.172;8.256;2023-02-01T07:59:50;12.37;;;2.73;;
16063;SDS011;8136;53.172;8.256;2023-02-01T08:02:34;14.97;;;2.87;;
16063;SDS011;8136;53.172;8.256;2023-02-01T08:05:02;14.90;;;3.03;;
16063;SDS011;8136;53.172;8.256;2023-02-01T08:07:30;13.13;;;3.20;;
16063;SDS011;8136;53.172;8.256;2023-02-01T08:10:01;15.07;;;3.27;;
16063;SDS011;8136;53.172;8.256;2023-02-01T08:12:30;12.70;;;3.13;;
16063;SDS011;8136;53.172;8.256;2023-02-01T08:14:57;15.33;;;3.10;;
16063;SDS011;8136;53.172;8.256;2023-02-01T08:17:24;16.30;;;3.10;;
16063;SDS011;8136;53.172;8.256;2023-02-01T08:19:54;13.83;;;2.93;;
16063;SDS011;8136;53.172;8.256;2023-02-01T08:22:25;15.70;;;3.43;;
16063;SDS011;8136;53.172;8.256;2023-02-01T08:24:55;15.37;;;3.83;;
16063;SDS011;8136;53.172;8.256;2023-02-01T08:27:29;14.80;;;3.60;;
16063;SDS011;8136;53.172;8.256;2023-02-01T08:29:58;18.23;;;3.90;;
16063;SDS011;8136;53.172;8.256;2023-02-01T08:32:25;14.30;;;3.23;;
16063;SDS011;8136;53.172;8.256;2023-02-01T08:34:54;15.27;;;3.60;;
16063;SDS011;8136;53.172;8.256;2023-02-01T08:37:25;9.07;;;3.83;;
16063;SDS011;8136;53.172;8.256;2023-02-01T08:39:52;18.67;;;3.43;;
16063;SDS011;8136;53.172;8.256;2023-02-01T08:42:19;16.40;;;3.43;;
16063;SDS011;8136;53.172;8.256;2023-02-01T08:45:07;19.43;;;3.30;;
16063;SDS011;8136;53.172;8.256;2023-02-01T08:47:41;15.83;;;2.73;;
16063;SDS011;8136;53.172;8.256;2023-02-01T08:50:09;18.17;;;3.43;;
16063;SDS011;8136;53.172;8.256;2023-02-01T08:52:40;13.27;;;3.10;;
16063;SDS011;8136;53.172;8.256;2023-02-01T08:55:13;13.57;;;3.07;;
16063;SDS011;8136;53.172;8.256;2023-02-01T08:57:40;13.10;;;3.13;;
16063;SDS011;8136;53.172;8.256;2023-02-01T09:00:11;15.63;;;2.50;;
16063;SDS011;8136;53.172;8.256;2023-02-01T09:02:40;15.57;;;2.83;;
16063;SDS011;8136;53.172;8.256;2023-02-01T09:05:07;15.30;;;3.07;;
16063;SDS011;8136;53.172;8.256;2023-02-01T09:07:38;10.27;;;2.47;;
16063;SDS011;8136;53.172;8.256;2023-02-01T09:10:12;16.63;;;3.87;;
16063;SDS011;8136;53.172;8.256;2023-02-01T09:12:43;14.80;;;2.93;;
16063;SDS011;8136;53.172;8.256;2023-02-01T09:15:15;14.53;;;3.10;;
16063;SDS011;8136;53.172;8.256;2023-02-01T09:17:45;14.57;;;3.03;;
16063;SDS011;8136;53.172;8.256;2023-02-01T09:20:15;9.23;;;2.83;;
16063;SDS011;8136;53.172;8.256;2023-02-01T09:22:45;19.90;;;3.13;;
16063;SDS011;8136;53.172;8.256;2023-02-01T09:25:12;12.50;;;2.80;;
16063;SDS011;8136;53.172;8.256;2023-02-01T09:27:38;10.67;;;2.83;;
16063;SDS011;8136;53.172;8.256;2023-02-01T09:30:06;12.40;;;2.80;;
16063;SDS011;8136;53.172;8.256;2023-02-01T09:32:38;10.83;;;2.33;;
16063;SDS011;8136;53.172;8.256;2023-02-01T09:35:08;15.77;;;3.13;;
16063;SDS011;8136;53.172;8.256;2023-02-01T09:37:35;16.87;;;3.90;;
16063;SDS011;8136;53.172;8.256;2023-02-01T09:40:16;12.47;;;3.10;;
16063;SDS011;8136;53.172;8.256;2023-02-01T09:42:46;16.27;;;3.00;;
16063;SDS011;8136;53.172;8.256;2023-02-01T09:45:35;14.37;;;2.90;;
16063;SDS011;8136;53.172;8.256;2023-02-01T09:48:17;13.57;;;2.37;;
16063;SDS011;8136;53.172;8.256;2023-02-01T09:50:57;11.43;;;3.30;;
16063;SDS011;8136;53.172;8.256;2023-02-01T09:53:33;11.23;;;3.40;;
16063;SDS011;8136;53.172;8.256;2023-02-01T09:56:15;13.00;;;3.33;;
16063;SDS011;8136;53.172;8.256;2023-02-01T09:58:58;12.83;;;2.63;;
16063;SDS011;8136;53.172;8.256;2023-02-01T10:01:35;17.83;;;3.20;;
16063;SDS011;8136;53.172;8.256;2023-02-01T10:04:05;13.33;;;2.70;;
16063;SDS011;8136;53.172;8.256;2023-02-01T10:06:59;14.30;;;2.83;;
16063;SDS011;8136;53.172;8.256;2023-02-01T10:09:52;17.43;;;4.13;;
16063;SDS011;8136;53.172;8.256;2023-02-01T10:12:36;14.60;;;3.13;;
16063;SDS011;8136;53.172;8.256;2023-02-01T10:15:35;14.87;;;3.27;;
16063;SDS011;8136;53.172;8.256;2023-02-01T10:18:14;14.93;;;3.30;;
16063;SDS011;8136;53.172;8.256;2023-02-01T10:20:56;15.03;;;3.03;;
16063;SDS011;8136;53.172;8.256;2023-02-01T10:23:41;15.30;;;3.67;;
16063;SDS011;8136;53.172;8.256;2023-02-01T10:26:29;15.23;;;3.17;;
16063;SDS011;8136;53.172;8.256;2023-02-01T10:29:17;13.93;;;3.60;;
16063;SDS011;8136;53.172;8.256;2023-02-01T10:31:56;17.83;;;3.40;;
16063;SDS011;8136;53.172;8.256;2023-02-01T10:34:24;14.23;;;3.23;;
16063;SDS011;8136;53.172;8.256;2023-02-01T10:37:01;12.37;;;3.53;;
16063;SDS011;8136;53.172;8.256;2023-02-01T10:39:38;16.87;;;3.17;;
16063;SDS011;8136;53.172;8.256;2023-02-01T10:42:05;12.80;;;2.83;;
16063;SDS011;8136;53.172;8.256;2023-02-01T10:44:35;16.20;;;3.10;;
16063;SDS011;8136;53.172;8.256;2023-02-01T10:47:13;16.60;;;3.90;;
16063;SDS011;8136;53.172;8.256;2023-02-01T10:49:43;9.03;;;2.63;;
16063;SDS011;8136;53.172;8.256;2023-02-01T10:57:57;9.83;;;3.03;;
16063;SDS011;8136;53.172;8.256;2023-02-01T11:00:27;13.17;;;2.93;;
16063;SDS011;8136;53.172;8.256;2023-02-01T11:02:59;17.90;;;3.60;;
16063;SDS011;8136;53.172;8.256;2023-02-01T11:05:37;13.77;;;3.50;;
16063;SDS011;8136;53.172;8.256;2023-02-01T12:30:13;3.07;;;0.70;;
16063;SDS011;8136;53.172;8.256;2023-02-01T12:33:23;2.53;;;0.63;;
16063;SDS011;8136;53.172;8.256;2023-02-01T12:36:21;1.23;;;0.50;;
16063;SDS011;8136;53.172;8.256;2023-02-01T12:39:33;2.50;;;0.50;;
16063;SDS011;8136;53.172;8.256;2023-02-01T12:42:29;1.40;;;0.70;;
16063;SDS011;8136;53.172;8.256;2023-02-01T12:48:31;3.90;;;0.97;;
16063;SDS011;8136;53.172;8.256;2023-02-01T12:54:44;3.13;;;0.93;;
16063;SDS011;8136;53.172;8.256;2023-02-01T13:03:05;4.60;;;0.90;;
16063;SDS011;8136;53.172;8.256;2023-02-01T13:21:38;5.27;;;1.80;;
16063;SDS011;8136;53.172;8.256;2023-02-01T13:24:33;6.33;;;1.70;;
16063;SDS011;8136;53.172;8.256;2023-02-01T13:27:27;7.50;;;1.73;;
16063;SDS011;8136;53.172;8.256;2023-02-01T13:30:15;6.03;;;1.00;;
16063;SDS011;8136;53.172;8.256;2023-02-01T13:40:26;7.63;;;1.73;;
16063;SDS011;8136;53.172;8.256;2023-02-01T13:43:21;4.20;;;1.30;;
16063;SDS011;8136;53.172;8.256;2023-02-01T13:49:50;8.43;;;1.77;;
16063;SDS011;8136;53.172;8.256;2023-02-01T16:33:19;12.97;;;2.60;;
16063;SDS011;8136;53.172;8.256;2023-02-01T16:35:48;12.83;;;2.80;;
16063;SDS011;8136;53.172;8.256;2023-02-01T16:38:18;13.23;;;2.73;;
16063;SDS011;8136;53.172;8.256;2023-02-01T16:41:44;14.90;;;2.83;;
16063;SDS011;8136;53.172;8.256;2023-02-01T16:44:40;14.27;;;3.00;;
16063;SDS011;8136;53.172;8.256;2023-02-01T16:47:38;14.33;;;3.87;;
16063;SDS011;8136;53.172;8.256;2023-02-01T16:56:39;13.03;;;3.33;;
16063;SDS011;8136;53.172;8.256;2023-02-01T16:59:31;16.83;;;2.90;;
16063;SDS011;8136;53.172;8.256;2023-02-01T17:02:41;18.03;;;3.67;;
16063;SDS011;8136;53.172;8.256;2023-02-01T17:05:23;15.87;;;3.03;;
16063;SDS011;8136;53.172;8.256;2023-02-01T18:01:43;20.77;;;3.60;;
16063;SDS011;8136;53.172;8.256;2023-02-01T18:04:19;18.30;;;3.77;;
16063;SDS011;8136;53.172;8.256;2023-02-01T18:20:33;16.93;;;3.70;;
16063;SDS011;8136;53.172;8.256;2023-02-01T18:30:31;12.63;;;2.80;;
16063;SDS011;8136;53.172;8.256;2023-02-01T18:33:27;14.63;;;2.93;;
16063;SDS011;8136;53.172;8.256;2023-02-01T18:36:00;14.43;;;3.20;;
16063;SDS011;8136;53.172;8.256;2023-02-01T18:38:29;21.20;;;3.37;;
16063;SDS011;8136;53.172;8.256;2023-02-01T18:40:58;21.40;;;3.57;;
16063;SDS011;8136;53.172;8.256;2023-02-01T18:43:32;11.80;;;3.27;;
16063;SDS011;8136;53.172;8.256;2023-02-01T18:45:59;15.23;;;3.07;;
16063;SDS011;8136;53.172;8.256;2023-02-01T18:48:29;23.77;;;3.23;;
16063;SDS011;8136;53.172;8.256;2023-02-01T18:50:56;15.70;;;3.20;;
16063;SDS011;8136;53.172;8.256;2023-02-01T18:53:24;11.37;;;3.27;;
16063;SDS011;8136;53.172;8.256;2023-02-01T18:55:53;11.20;;;2.83;;
16063;SDS011;8136;53.172;8.256;2023-02-01T18:58:24;11.87;;;2.70;;
16063;SDS011;8136;53.172;8.256;2023-02-01T19:00:55;12.50;;;3.23;;
16063;SDS011;8136;53.172;8.256;2023-02-01T19:03:23;15.50;;;3.60;;
16063;SDS011;8136;53.172;8.256;2023-02-01T19:05:53;16.97;;;3.50;;
16063;SDS011;8136;53.172;8.256;2023-02-01T19:11:28;16.30;;;3.47;;
16063;SDS011;8136;53.172;8.256;2023-02-01T19:14:13;16.43;;;4.03;;
16063;SDS011;8136;53.172;8.256;2023-02-01T19:20:24;8.63;;;2.97;;
16063;SDS011;8136;53.172;8.256;2023-02-01T19:26:16;20.90;;;3.33;;
16063;SDS011;8136;53.172;8.256;2023-02-01T19:29:16;10.13;;;3.00;;
16063;SDS011;8136;53.172;8.256;2023-02-01T19:31:47;13.83;;;3.43;;
16063;SDS011;8136;53.172;8.256;2023-02-01T19:34:37;11.10;;;3.43;;
16063;SDS011;8136;53.172;8.256;2023-02-01T19:37:32;18.40;;;4.20;;
16063;SDS011;8136;53.172;8.256;2023-02-01T19:40:14;20.40;;;3.80;;
16063;SDS011;8136;53.172;8.256;2023-02-01T19:43:03;14.97;;;3.20;;
16063;SDS011;8136;53.172;8.256;2023-02-01T19:45:56;14.80;;;2.80;;
16063;SDS011;8136;53.172;8.256;2023-02-01T19:48:26;13.23;;;3.23;;
16063;SDS011;8136;53.172;8.256;2023-02-01T19:50:58;14.17;;;2.90;;
16063;SDS011;8136;53.172;8.256;2023-02-01T19:53:25;17.63;;;3.10;;
16063;SDS011;8136;53.172;8.256;2023-02-01T19:55:53;18.97;;;3.57;;
16063;SDS011;8136;53.172;8.256;2023-02-01T19:58:26;16.73;;;3.70;;
16063;SDS011;8136;53.172;8.256;2023-02-01T20:01:01;17.97;;;3.53;;
16063;SDS011;8136;53.172;8.256;2023-02-01T20:03:32;14.77;;;3.47;;
16063;SDS011;8136;53.172;8.256;2023-02-01T20:06:00;19.23;;;3.60;;
16063;SDS011;8136;53.172;8.256;2023-02-01T20:08:28;17.73;;;3.00;;
16063;SDS011;8136;53.172;8.256;2023-02-01T20:10:54;11.90;;;3.60;;
16063;SDS011;8136;53.172;8.256;2023-02-01T20:13:26;13.80;;;3.27;;
16063;SDS011;8136;53.172;8.256;2023-02-01T20:15:56;13.10;;;2.90;;
16063;SDS011;8136;53.172;8.256;2023-02-01T20:18:24;11.90;;;2.70;;
16063;SDS011;8136;53.172;8.256;2023-02-01T20:20:54;13.57;;;3.40;;
16063;SDS011;8136;53.172;8.256;2023-02-01T20:23:22;20.27;;;4.20;;
16063;SDS011;8136;53.172;8.256;2023-02-01T20:25:49;19.67;;;3.83;;
16063;SDS011;8136;53.172;8.256;2023-02-01T23:35:40;20.40;;;3.07;;
16063;SDS011;8136;53.172;8.256;2023-02-01T23:38:10;11.27;;;2.50;;
16063;SDS011;8136;53.172;8.256;2023-02-01T23:40:42;15.73;;;2.93;;
16063;SDS011;8136;53.172;8.256;2023-02-01T23:43:16;15.07;;;2.90;;
16063;SDS011;8136;53.172;8.256;2023-02-01T23:46:28;15.43;;;3.33;;
16063;SDS011;8136;53.172;8.256;2023-02-01T23:49:11;13.70;;;2.53;;
16063;SDS011;8136;53.172;8.256;2023-02-01T23:51:54;18.60;;;3.77;;
16063;SDS011;8136;53.172;8.256;2023-02-01T23:54:21;15.63;;;3.30;;
16063;SDS011;8136;53.172;8.256;2023-02-01T23:56:55;16.53;;;3.23;;
16063;SDS011;8136;53.172;8.256;2023-02-01T23:59:26;18.57;;;2.63;;
